Orleans, Indiana
Current Conditions -  °F | °C
As of 10:53 AM on Wednesday 26 Nov 2014 (Local Time) from KBMG Reporting Station
Broken Clouds Broken Clouds  
Wind Chill: 25°   Ceiling: 1600
Heat Index: 30°   Visibility: 10mi
Dew Point: 24°   Wind: 5mph
Humidity: 79%   Direction: 120°ESE
Pressure: 30.12"   Gusts: NA
Location:  38.66°N, 86.45°W
Report Text: KBMG 261553Z 12004KT 10SM BKN016 M01/M04 A3012 RMK AO2 SLP209 T10111044
Loading
Personal Weather Stations






























Interactive Weather Map New forecast layout! Learn more

10-Day Weather Forecast

Advertisements
Track Severe Weather on mobile